Athens, Vermont
Current Conditions -  °F | °C
As of 7:54 PM on Monday 26 Jan 2015 (Local Time) from KVSF Reporting Station
Overcast Overcast  
Wind Chill: -14°   Ceiling: 8000
Heat Index: -8°   Visibility: 10mi
Dew Point: -18°   Wind: 9mph
Humidity: 44%   Direction: 80°E
Pressure: 30.08"   Gusts: NA
Location:  43.2811°N, 72.6352°W
Report Text: KVSF 270054Z AUTO 08008KT 10SM BKN080 OVC100 M08/M18 A3008 RMK AO2 SLP199 T10781183 TSNO
Loading
Personal Weather Stations






























Interactive Weather Map New forecast layout! Learn more

10-Day Weather Forecast

Advertisements
Track Severe Weather on mobile